Terminal Aerodrome Forecast
Issued by NWS Jacksonville, FL

Current Version | Previous Version | Text Only | Print | Product List | Glossary On
Versions: 1 2 3 4 5 6 7 8 9 10 11 12 13 14
413
FTUS42 KJAX 200553
TAFJAX
TAF
KJAX 200553Z 2006/2106 33008KT P6SM SCT050
     FM200900 03015G22KT P6SM SCT040 BKN080
     FM201400 05017G27KT P6SM BKN025
     FM202300 05010G18KT P6SM SCT015 BKN025=

USA.gov is the U.S. government's official web portal to all federal, state and local government web resources and services.